KARG

Walnut Ridge Regional Airport

Walnut Ridge, Arkansas, USA
METAR KARG 140836Z AUTO 06009KT 2 1/2SM -RA BR BKN003 OVC010 10/10 A2991 RMK AO2 P0000
Observed Flight Rules
Dec-14 @ 08:36 UTC (7 minutes ago) Instrument Flight Rules
Wind Visibility Clouds Conditions
60° at 9 knots 2 1/2 miles
  • Broken at 300' AGL
  • Overcast at 1,000' AGL
  • Light Rain
  • Mist
Temperatures Readings Precipitation
Current 10°C / 50°F
Dewpoint 10°C / 50°F
Humidity 100%
Altimeter 29.91" Hg
Pressure 1013 hPa
Elevation 83
Current Rain 0.005
METAR KARG 140836Z AUTO 06009KT 2 1/2SM -RA BR BKN003 OVC010 10/10 A2991 RMK AO2 P0000
Observed Flight Rules
Dec-14 @ 08:36 UTC
(7 minutes ago)
LIFR
Wind Visibility
60° at 9 knots 2 1/2 miles
Clouds
  • Broken at 300' AGL
  • Overcast at 1,000' AGL
Conditions
  • Light Rain
  • Mist
Temperature Dewpoint
10°C / 50°F 10°C / 50°F
Humidity Altimeter Pressure
100% 29.91" Hg 1013 hPa
Current Rain
0.005